createdAt,value
2023-03-07T06:01:38.498Z,1.00
2023-03-07T06:02:38.435Z,1.00
2023-03-07T06:03:38.432Z,1.00
2023-03-07T06:04:38.323Z,1.00
2023-03-07T06:09:38.353Z,1.00
2023-03-07T06:10:38.256Z,1.00
2023-03-07T06:11:38.317Z,1.00
2023-03-07T06:12:38.246Z,2.00
2023-03-07T06:13:38.326Z,2.00
2023-03-07T06:14:38.212Z,2.00
2023-03-07T06:15:38.286Z,2.00
2023-03-07T06:16:38.189Z,3.00
2023-03-07T06:17:40.604Z,3.00
2023-03-07T06:18:38.167Z,3.00
2023-03-07T06:19:38.231Z,3.00
2023-03-07T06:20:38.147Z,3.00
2023-03-07T06:21:38.222Z,1.00
2023-03-07T06:22:38.135Z,3.00
2023-03-07T06:23:38.213Z,3.00
2023-03-07T06:24:38.101Z,4.00
2023-03-07T06:25:38.175Z,4.00
2023-03-07T06:26:38.080Z,5.00
2023-03-07T06:27:38.144Z,9.00
2023-03-07T06:28:38.063Z,5.00
2023-03-07T06:29:39.140Z,5.00
2023-03-07T06:30:38.158Z,5.00
2023-03-07T06:31:38.063Z,5.00
2023-03-07T06:32:38.134Z,11.00
2023-03-07T06:33:38.016Z,10.00
2023-03-07T06:34:38.064Z,11.00
2023-03-07T06:35:38.036Z,11.00
2023-03-07T06:36:38.043Z,12.00
2023-03-07T06:37:38.004Z,9.00
2023-03-07T06:38:38.013Z,8.00
2023-03-07T06:39:37.962Z,15.00
2023-03-07T06:40:38.005Z,15.00
2023-03-07T06:41:37.942Z,18.00
2023-03-07T06:42:37.992Z,17.00
2023-03-07T06:43:37.908Z,18.00
2023-03-07T06:44:37.959Z,18.00
2023-03-07T06:45:37.902Z,26.00
2023-03-07T06:46:37.928Z,26.00
2023-03-07T06:47:37.862Z,26.00
2023-03-07T06:48:37.915Z,26.00
2023-03-07T06:49:37.850Z,24.00
2023-03-07T06:50:37.892Z,25.00
2023-03-07T06:51:38.216Z,26.00
2023-03-07T06:52:37.867Z,20.00
2023-03-07T06:53:37.807Z,19.00
2023-03-07T06:54:37.845Z,17.00
2023-03-07T06:55:37.794Z,19.00
2023-03-07T06:56:37.830Z,19.00
2023-03-07T06:57:37.752Z,16.00
2023-03-07T06:58:37.792Z,20.00
2023-03-07T06:59:37.734Z,17.00
2023-03-07T07:00:37.769Z,17.00
2023-03-07T07:01:37.706Z,23.00
2023-03-07T07:02:37.899Z,27.00
2023-03-07T07:03:37.691Z,23.00
2023-03-07T07:04:37.742Z,28.00
2023-03-07T07:05:37.664Z,26.00
2023-03-07T07:06:37.872Z,27.00
2023-03-07T07:07:37.623Z,24.00
2023-03-07T07:08:37.987Z,21.00
2023-03-07T07:09:37.604Z,25.00
2023-03-07T07:10:37.678Z,27.00
2023-03-07T07:11:37.588Z,13.00
2023-03-07T07:12:37.650Z,15.00
2023-03-07T07:13:37.560Z,14.00
2023-03-07T07:14:37.632Z,14.00
2023-03-07T07:15:37.538Z,16.00
2023-03-07T07:16:37.625Z,17.00
2023-03-07T07:17:37.519Z,16.00
2023-03-07T07:18:37.583Z,17.00
2023-03-07T07:19:37.493Z,24.00
2023-03-07T07:20:37.574Z,23.00
2023-03-07T07:21:37.478Z,24.00
2023-03-07T07:22:37.605Z,25.00
2023-03-07T07:23:37.449Z,22.00
2023-03-07T07:24:37.524Z,23.00
2023-03-07T07:25:37.434Z,30.00
2023-03-07T07:26:37.502Z,25.00
2023-03-07T07:27:37.404Z,25.00
2023-03-07T07:28:37.483Z,25.00
2023-03-07T07:29:37.382Z,25.00
2023-03-07T07:30:37.461Z,26.00
2023-03-07T07:31:37.481Z,29.00
2023-03-07T07:32:37.615Z,29.00
2023-03-07T07:33:37.343Z,26.00
2023-03-07T07:34:37.401Z,27.00
2023-03-07T07:35:37.342Z,31.00
2023-03-07T07:36:37.382Z,27.00
2023-03-07T07:37:37.299Z,24.00
2023-03-07T07:38:37.369Z,25.00
2023-03-07T07:39:37.274Z,28.00
2023-03-07T07:40:37.361Z,33.00
2023-03-07T07:41:37.253Z,34.00
2023-03-07T07:42:37.326Z,33.00
2023-03-07T07:43:37.230Z,34.00
2023-03-07T07:44:37.305Z,36.00
2023-03-07T07:45:37.232Z,35.00
2023-03-07T07:46:37.335Z,37.00
2023-03-07T07:47:37.199Z,40.00
2023-03-07T07:48:37.275Z,36.00
2023-03-07T07:49:37.166Z,36.00
2023-03-07T07:50:37.242Z,32.00
2023-03-07T07:51:37.173Z,29.00
2023-03-07T07:52:37.216Z,29.00
2023-03-07T07:53:37.121Z,29.00
2023-03-07T07:54:37.213Z,32.00
2023-03-07T07:55:37.101Z,36.00
2023-03-07T07:56:37.165Z,32.00
2023-03-07T07:57:37.082Z,39.00
2023-03-07T07:58:37.154Z,36.00
2023-03-07T07:59:37.056Z,40.00
2023-03-07T08:00:39.280Z,38.00
2023-03-07T08:01:37.049Z,38.00
2023-03-07T08:02:37.174Z,37.00
2023-03-07T08:03:37.034Z,41.00
2023-03-07T08:04:37.077Z,38.00
2023-03-07T08:05:36.994Z,41.00
2023-03-07T08:06:37.070Z,46.00
2023-03-07T08:07:36.977Z,43.00
2023-03-07T08:08:37.063Z,45.00
2023-03-07T08:09:36.948Z,44.00
2023-03-07T08:10:37.023Z,46.00
2023-03-07T08:11:36.939Z,46.00
2023-03-07T08:12:37.000Z,48.00
2023-03-07T08:13:36.903Z,47.00
2023-03-07T08:14:36.989Z,49.00
2023-03-07T08:15:36.902Z,52.00
2023-03-07T08:16:36.967Z,48.00
2023-03-07T08:17:36.867Z,50.00
2023-03-07T08:18:36.930Z,54.00
2023-03-07T08:19:36.838Z,58.00
2023-03-07T08:20:36.914Z,58.00
2023-03-07T08:21:36.818Z,58.00
2023-03-07T08:22:36.891Z,61.00
2023-03-07T08:23:36.814Z,54.00
2023-03-07T08:24:40.937Z,48.00
2023-03-07T08:25:36.775Z,52.00
2023-03-07T08:26:36.847Z,57.00
2023-03-07T08:27:36.752Z,69.00
2023-03-07T08:28:36.822Z,63.00
2023-03-07T08:29:36.732Z,64.00
2023-03-07T08:30:36.792Z,62.00
2023-03-07T08:31:36.711Z,64.00
2023-03-07T08:32:36.812Z,66.00
2023-03-07T08:33:36.685Z,72.00
2023-03-07T08:34:36.768Z,70.00
2023-03-07T08:35:36.748Z,69.00
2023-03-07T08:36:36.726Z,55.00
2023-03-07T08:37:36.639Z,52.00
2023-03-07T08:38:36.716Z,59.00
2023-03-07T08:39:36.624Z,50.00
2023-03-07T08:40:36.700Z,52.00
2023-03-07T08:41:36.597Z,54.00
2023-03-07T08:42:36.719Z,55.00
2023-03-07T08:43:36.586Z,54.00
2023-03-07T08:44:36.654Z,50.00
2023-03-07T08:45:36.558Z,50.00
2023-03-07T08:46:36.715Z,55.00
2023-03-07T08:47:36.536Z,55.00
2023-03-07T08:48:36.599Z,53.00
2023-03-07T08:49:36.510Z,53.00
2023-03-07T08:50:36.583Z,56.00
2023-03-07T08:51:36.481Z,56.00
2023-03-07T08:52:36.602Z,57.00
2023-03-07T08:53:36.459Z,47.00
2023-03-07T08:54:36.536Z,50.00
2023-03-07T08:55:36.437Z,54.00
2023-03-07T08:56:36.524Z,51.00
2023-03-07T08:57:36.414Z,55.00
2023-03-07T08:58:36.488Z,55.00
2023-03-07T08:59:36.400Z,57.00
2023-03-07T09:00:36.479Z,62.00
2023-03-07T09:01:36.401Z,59.00
2023-03-07T09:02:36.431Z,67.00
2023-03-07T09:03:36.353Z,72.00
2023-03-07T09:04:36.482Z,73.00
2023-03-07T09:05:36.344Z,69.00
2023-03-07T09:06:36.399Z,68.00
2023-03-07T09:07:36.315Z,67.00
2023-03-07T09:08:36.389Z,74.00
2023-03-07T09:09:36.280Z,75.00
2023-03-07T09:10:36.356Z,65.00
2023-03-07T09:11:36.261Z,73.00
2023-03-07T09:12:36.332Z,71.00
2023-03-07T09:13:49.771Z,65.00
2023-03-07T09:14:36.302Z,69.00
2023-03-07T09:15:36.213Z,68.00
2023-03-07T09:16:36.313Z,67.00
2023-03-07T09:17:36.188Z,72.00
2023-03-07T09:18:36.280Z,71.00
2023-03-07T09:19:36.173Z,72.00
2023-03-07T09:20:36.241Z,70.00
2023-03-07T09:21:36.148Z,68.00
2023-03-07T09:22:36.221Z,57.00
2023-03-07T09:23:36.130Z,67.00
2023-03-07T09:24:36.200Z,78.00
2023-03-07T09:25:36.103Z,69.00
2023-03-07T09:26:36.177Z,77.00
2023-03-07T09:27:36.084Z,77.00
2023-03-07T09:28:36.151Z,79.00
2023-03-07T09:29:36.061Z,94.00
2023-03-07T09:30:36.123Z,79.00
2023-03-07T09:31:36.117Z,83.00
2023-03-07T09:32:36.145Z,90.00
2023-03-07T09:33:36.027Z,94.00
2023-03-07T09:34:36.082Z,87.00
2023-03-07T09:35:36.046Z,93.00
2023-03-07T09:36:36.058Z,105.00
2023-03-07T09:37:35.975Z,104.00
2023-03-07T09:38:36.037Z,121.00
2023-03-07T09:39:35.951Z,138.00
2023-03-07T09:40:36.025Z,139.00
2023-03-07T09:41:35.932Z,130.00
2023-03-07T09:42:36.004Z,163.00
2023-03-07T09:43:35.906Z,132.00
2023-03-07T09:44:35.980Z,131.00
2023-03-07T09:45:38.754Z,146.00
2023-03-07T09:46:36.199Z,159.00
2023-03-07T09:47:35.862Z,143.00
2023-03-07T09:48:35.937Z,142.00
2023-03-07T09:49:35.840Z,159.00
2023-03-07T09:50:35.940Z,147.00
2023-03-07T09:51:35.822Z,168.00
2023-03-07T09:52:35.898Z,150.00
2023-03-07T09:53:35.797Z,155.00
2023-03-07T09:54:35.861Z,154.00
2023-03-07T09:55:35.774Z,140.00
2023-03-07T09:56:35.870Z,143.00
2023-03-07T09:57:35.752Z,134.00
2023-03-07T09:58:35.829Z,147.00
2023-03-07T09:59:35.731Z,168.00
2023-03-07T10:00:35.817Z,185.00
2023-03-07T10:01:35.712Z,196.00
2023-03-07T10:02:35.775Z,173.00
2023-03-07T10:03:35.710Z,171.00
2023-03-07T10:04:35.795Z,182.00
2023-03-07T10:05:35.695Z,193.00
2023-03-07T10:06:35.825Z,202.00
2023-03-07T10:07:35.644Z,205.00
2023-03-07T10:08:35.908Z,187.00
2023-03-07T10:09:35.622Z,170.00
2023-03-07T10:10:35.682Z,170.00
2023-03-07T10:11:35.680Z,194.00
2023-03-07T10:12:35.672Z,173.00
2023-03-07T10:13:35.575Z,196.00
2023-03-07T10:14:35.796Z,201.00
2023-03-07T10:15:35.656Z,200.00
2023-03-07T10:16:36.042Z,216.00
2023-03-07T10:17:35.529Z,204.00
2023-03-07T10:18:35.637Z,203.00
2023-03-07T10:19:35.731Z,173.00
2023-03-07T10:20:35.581Z,203.00
2023-03-07T10:21:35.494Z,225.00
2023-03-07T10:22:35.572Z,194.00
2023-03-07T10:23:35.467Z,186.00
2023-03-07T10:24:37.103Z,199.00
2023-03-07T10:25:35.457Z,204.00
2023-03-07T10:26:35.647Z,224.00
2023-03-07T10:27:35.421Z,175.00
2023-03-07T10:28:35.504Z,165.00
2023-03-07T10:29:35.402Z,173.00
2023-03-07T10:30:35.473Z,190.00
2023-03-07T10:31:35.443Z,169.00
2023-03-07T10:32:35.503Z,207.00
2023-03-07T10:33:35.347Z,168.00
2023-03-07T10:34:36.429Z,208.00
2023-03-07T10:35:35.439Z,192.00
2023-03-07T10:36:35.444Z,213.00
2023-03-07T10:37:35.371Z,232.00
2023-03-07T10:38:35.316Z,281.00
2023-03-07T10:39:35.349Z,281.00
2023-03-07T10:40:35.285Z,285.00
2023-03-07T10:41:35.343Z,294.00
2023-03-07T10:42:35.264Z,227.00
2023-03-07T10:43:35.313Z,193.00
2023-03-07T10:44:35.240Z,185.00
2023-03-07T10:45:35.338Z,218.00
2023-03-07T10:46:36.645Z,212.00
2023-03-07T10:47:35.270Z,210.00
2023-03-07T10:48:35.215Z,212.00
2023-03-07T10:49:35.258Z,228.00
2023-03-07T10:50:35.177Z,239.00
2023-03-07T10:51:35.237Z,196.00
2023-03-07T10:52:35.153Z,185.00
2023-03-07T10:53:35.212Z,216.00
2023-03-07T10:54:35.128Z,197.00
2023-03-07T10:55:35.167Z,185.00
2023-03-07T10:56:35.103Z,190.00
2023-03-07T10:57:35.156Z,237.00
2023-03-07T10:58:35.095Z,204.00
2023-03-07T10:59:35.124Z,123.00
2023-03-07T11:00:35.064Z,149.00
2023-03-07T11:01:35.139Z,124.00
2023-03-07T11:02:35.047Z,159.00
2023-03-07T11:03:49.710Z,217.00
2023-03-07T11:04:35.031Z,214.00
2023-03-07T11:05:35.058Z,148.00
2023-03-07T11:06:35.079Z,189.00
2023-03-07T11:07:35.047Z,123.00
2023-03-07T11:08:34.971Z,162.00
2023-03-07T11:09:35.033Z,106.00
2023-03-07T11:10:34.951Z,107.00
2023-03-07T11:11:34.990Z,79.00
2023-03-07T11:12:34.930Z,122.00
2023-03-07T11:13:34.969Z,129.00
2023-03-07T11:14:34.928Z,89.00
2023-03-07T11:15:35.017Z,115.00
2023-03-07T11:16:34.900Z,150.00
2023-03-07T11:17:34.934Z,133.00
2023-03-07T11:18:34.861Z,83.00
2023-03-07T11:19:34.930Z,199.00
2023-03-07T11:20:34.838Z,178.00
2023-03-07T11:21:34.914Z,210.00
2023-03-07T11:22:34.824Z,150.00
2023-03-07T11:23:34.911Z,140.00
2023-03-07T11:24:34.787Z,99.00
2023-03-07T11:25:34.868Z,105.00
2023-03-07T11:26:34.763Z,122.00
2023-03-07T11:27:34.837Z,107.00
2023-03-07T11:28:34.767Z,139.00
2023-03-07T11:29:34.816Z,110.00
2023-03-07T11:30:34.714Z,117.00
2023-03-07T11:31:34.788Z,194.00
2023-03-07T11:32:34.723Z,130.00
2023-03-07T11:33:34.771Z,193.00
2023-03-07T11:34:34.674Z,158.00
2023-03-07T11:35:34.765Z,118.00
2023-03-07T11:36:34.660Z,118.00
2023-03-07T11:37:34.728Z,107.00
2023-03-07T11:38:34.625Z,143.00
2023-03-07T11:39:34.706Z,192.00
2023-03-07T11:40:34.620Z,195.00
2023-03-07T11:41:34.682Z,237.00
2023-03-07T11:42:34.588Z,265.00
2023-03-07T11:43:34.650Z,216.00
2023-03-07T11:44:34.562Z,259.00
2023-03-07T11:45:34.660Z,289.00
2023-03-07T11:46:34.590Z,269.00
2023-03-07T11:47:34.606Z,301.00
2023-03-07T11:48:34.515Z,198.00
2023-03-07T11:49:34.605Z,252.00
2023-03-07T11:50:34.495Z,283.00
2023-03-07T11:51:34.572Z,276.00
2023-03-07T11:52:34.473Z,254.00
2023-03-07T11:53:34.548Z,163.00
2023-03-07T11:54:34.455Z,220.00
2023-03-07T11:55:35.999Z,216.00
2023-03-07T11:56:34.436Z,217.00
2023-03-07T11:57:34.516Z,221.00
2023-03-07T11:58:34.414Z,229.00
2023-03-07T11:59:34.494Z,229.00
2023-03-07T12:00:34.388Z,224.00
2023-03-07T12:01:34.453Z,259.00
2023-03-07T12:02:34.398Z,203.00
2023-03-07T12:03:34.433Z,229.00
2023-03-07T12:04:34.350Z,179.00
2023-03-07T12:05:34.617Z,211.00
2023-03-07T12:06:34.323Z,243.00
2023-03-07T12:07:34.492Z,239.00
2023-03-07T12:08:34.307Z,210.00
2023-03-07T12:09:34.366Z,168.00
2023-03-07T12:10:34.283Z,147.00
2023-03-07T12:11:34.354Z,141.00
2023-03-07T12:12:34.263Z,232.00
2023-03-07T12:13:34.337Z,205.00
2023-03-07T12:14:34.236Z,239.00
2023-03-07T12:15:34.310Z,199.00
2023-03-07T12:16:34.297Z,238.00
2023-03-07T12:17:34.295Z,232.00
2023-03-07T12:18:34.195Z,269.00
2023-03-07T12:19:34.287Z,240.00
2023-03-07T12:20:34.183Z,240.00
2023-03-07T12:21:34.235Z,223.00
2023-03-07T12:22:34.153Z,258.00
2023-03-07T12:23:35.227Z,261.00
2023-03-07T12:24:34.210Z,264.00
2023-03-07T12:25:34.127Z,245.00
2023-03-07T12:26:34.177Z,292.00
2023-03-07T12:27:34.108Z,228.00
2023-03-07T12:28:34.157Z,253.00
2023-03-07T12:29:34.098Z,269.00
2023-03-07T12:30:34.134Z,239.00
2023-03-07T12:31:34.236Z,261.00
2023-03-07T12:32:34.393Z,267.00
2023-03-07T12:33:34.076Z,248.00
2023-03-07T12:34:34.093Z,278.00
2023-03-07T12:35:34.095Z,204.00
2023-03-07T12:36:34.172Z,199.00
2023-03-07T12:37:33.998Z,154.00
2023-03-07T12:38:36.216Z,145.00
2023-03-07T12:39:33.975Z,206.00
2023-03-07T12:40:34.060Z,266.00
2023-03-07T12:41:33.997Z,219.00
2023-03-07T12:42:34.004Z,238.00
2023-03-07T12:43:33.931Z,200.00
2023-03-07T12:44:33.984Z,129.00
2023-03-07T12:45:33.999Z,139.00
2023-03-07T12:46:34.030Z,182.00
2023-03-07T12:47:33.894Z,238.00
2023-03-07T12:48:33.939Z,278.00
2023-03-07T12:49:40.937Z,291.00
2023-03-07T12:50:33.921Z,250.00
2023-03-07T12:51:33.847Z,272.00
2023-03-07T12:52:33.885Z,331.00
2023-03-07T12:53:33.830Z,318.00
2023-03-07T12:54:33.876Z,323.00
2023-03-07T12:55:33.810Z,310.00
2023-03-07T12:56:33.845Z,310.00
2023-03-07T12:57:33.779Z,326.00
2023-03-07T12:58:33.828Z,283.00
2023-03-07T12:59:33.756Z,280.00
2023-03-07T13:00:33.796Z,218.00
2023-03-07T13:01:33.835Z,245.00
2023-03-07T13:02:33.787Z,202.00
2023-03-07T13:03:33.712Z,196.00
2023-03-07T13:04:33.821Z,186.00
2023-03-07T13:05:33.685Z,257.00
2023-03-07T13:06:33.738Z,260.00
2023-03-07T13:07:33.677Z,199.00
2023-03-07T13:08:33.702Z,144.00
2023-03-07T13:09:33.663Z,150.00
2023-03-07T13:10:33.695Z,191.00
2023-03-07T13:11:33.737Z,240.00
2023-03-07T13:12:34.675Z,261.00
2023-03-07T13:13:33.658Z,192.00
2023-03-07T13:14:33.587Z,110.00
2023-03-07T13:15:33.638Z,158.00
2023-03-07T13:16:33.629Z,194.00
2023-03-07T13:17:33.624Z,169.00
2023-03-07T13:18:33.532Z,201.00
2023-03-07T13:19:33.595Z,143.00
2023-03-07T13:20:33.511Z,212.00
2023-03-07T13:21:33.574Z,230.00
2023-03-07T13:22:33.488Z,230.00
2023-03-07T13:23:33.641Z,272.00
2023-03-07T13:24:33.468Z,195.00
2023-03-07T13:25:33.548Z,209.00
2023-03-07T13:26:33.447Z,246.00
2023-03-07T13:27:33.512Z,245.00
2023-03-07T13:28:33.423Z,194.00
2023-03-07T13:29:33.492Z,131.00
2023-03-07T13:30:33.463Z,98.00
2023-03-07T13:31:33.479Z,62.00
2023-03-07T13:32:33.433Z,62.00
2023-03-07T13:33:33.450Z,56.00
2023-03-07T13:34:33.355Z,71.00
2023-03-07T13:35:33.560Z,86.00
2023-03-07T13:36:33.331Z,153.00
2023-03-07T13:37:33.395Z,172.00
2023-03-07T13:38:33.311Z,181.00
2023-03-07T13:39:33.374Z,128.00
2023-03-07T13:40:33.288Z,120.00
2023-03-07T13:41:33.350Z,101.00
2023-03-07T13:42:33.265Z,169.00
2023-03-07T13:43:33.336Z,234.00
2023-03-07T13:44:33.242Z,235.00
2023-03-07T13:45:33.317Z,220.00
2023-03-07T13:46:33.249Z,214.00
2023-03-07T13:47:33.290Z,204.00
2023-03-07T13:48:33.213Z,194.00
2023-03-07T13:49:33.269Z,150.00
2023-03-07T13:50:33.176Z,136.00
2023-03-07T13:51:33.290Z,108.00
2023-03-07T13:52:33.158Z,94.00
2023-03-07T13:53:33.246Z,80.00
2023-03-07T13:54:33.135Z,87.00
2023-03-07T13:55:33.263Z,64.00
2023-03-07T13:56:33.119Z,54.00
2023-03-07T13:57:33.189Z,46.00
2023-03-07T13:58:33.098Z,38.00
2023-03-07T13:59:33.153Z,34.00
2023-03-07T14:00:33.078Z,24.00
2023-03-07T14:01:33.219Z,26.00
2023-03-07T14:02:33.063Z,23.00
2023-03-07T14:03:33.163Z,22.00
2023-03-07T14:04:40.323Z,28.00
2023-03-07T14:05:33.123Z,36.00
2023-03-07T14:06:33.007Z,46.00
2023-03-07T14:07:33.080Z,52.00
2023-03-07T14:08:32.980Z,55.00
2023-03-07T14:09:33.052Z,56.00
2023-03-07T14:10:32.963Z,52.00
2023-03-07T14:11:33.036Z,44.00
2023-03-07T14:12:32.942Z,46.00
2023-03-07T14:13:33.019Z,50.00
2023-03-07T14:14:32.961Z,60.00
2023-03-07T14:15:33.026Z,62.00
2023-03-07T14:16:32.899Z,83.00
2023-03-07T14:17:32.969Z,77.00
2023-03-07T14:18:32.880Z,73.00
2023-03-07T14:19:32.973Z,79.00
2023-03-07T14:20:32.860Z,83.00
2023-03-07T14:21:32.933Z,89.00
2023-03-07T14:22:32.834Z,80.00
2023-03-07T14:23:32.920Z,84.00
2023-03-07T14:24:32.811Z,83.00
2023-03-07T14:25:32.880Z,86.00
2023-03-07T14:26:32.798Z,78.00
2023-03-07T14:27:32.866Z,85.00
2023-03-07T14:28:32.770Z,74.00
2023-03-07T14:29:32.837Z,69.00
2023-03-07T14:30:32.746Z,68.00
2023-03-07T14:31:32.895Z,69.00
2023-03-07T14:32:32.835Z,81.00
2023-03-07T14:33:32.798Z,77.00
2023-03-07T14:34:32.708Z,84.00
2023-03-07T14:35:32.795Z,86.00
2023-03-07T14:36:32.710Z,82.00
2023-03-07T14:37:32.783Z,79.00
2023-03-07T14:38:32.657Z,83.00
2023-03-07T14:39:32.722Z,87.00
2023-03-07T14:40:32.642Z,85.00
2023-03-07T14:41:32.699Z,88.00
2023-03-07T14:42:32.613Z,90.00
2023-03-07T14:43:32.692Z,88.00
2023-03-07T14:44:32.588Z,86.00
2023-03-07T14:45:32.698Z,85.00
2023-03-07T14:46:32.593Z,82.00
2023-03-07T14:47:32.641Z,81.00
2023-03-07T14:48:32.543Z,84.00
2023-03-07T14:49:32.617Z,88.00
2023-03-07T14:50:32.524Z,89.00
2023-03-07T14:51:32.582Z,90.00
2023-03-07T14:52:32.492Z,94.00
2023-03-07T14:53:32.568Z,99.00
2023-03-07T14:54:32.478Z,103.00
2023-03-07T14:55:32.537Z,102.00
2023-03-07T14:56:32.457Z,102.00
2023-03-07T14:57:32.530Z,109.00
2023-03-07T14:58:32.436Z,112.00
2023-03-07T14:59:32.493Z,113.00
2023-03-07T15:00:32.406Z,107.00
2023-03-07T15:01:32.550Z,109.00
2023-03-07T15:02:32.386Z,109.00
2023-03-07T15:03:32.494Z,101.00
2023-03-07T15:04:32.446Z,97.00
2023-03-07T15:05:32.428Z,96.00
2023-03-07T15:06:32.335Z,101.00
2023-03-07T15:07:32.413Z,103.00
2023-03-07T15:08:32.319Z,103.00
2023-03-07T15:09:32.394Z,97.00
2023-03-07T15:10:32.295Z,88.00
2023-03-07T15:11:32.369Z,82.00
2023-03-07T15:12:32.310Z,84.00
2023-03-07T15:13:33.279Z,90.00
2023-03-07T15:14:32.247Z,90.00
2023-03-07T15:15:32.328Z,94.00
2023-03-07T15:16:32.322Z,94.00
2023-03-07T15:17:32.300Z,92.00
2023-03-07T15:18:32.231Z,87.00
2023-03-07T15:19:32.267Z,84.00
2023-03-07T15:20:32.187Z,82.00
2023-03-07T15:21:32.254Z,87.00
2023-03-07T15:22:32.217Z,96.00
2023-03-07T15:23:32.239Z,101.00
2023-03-07T15:24:32.156Z,98.00
2023-03-07T15:25:32.221Z,95.00
2023-03-07T15:26:32.124Z,84.00
2023-03-07T15:27:32.195Z,80.00
2023-03-07T15:28:32.113Z,75.00
2023-03-07T15:29:32.170Z,77.00
2023-03-07T15:30:32.081Z,74.00
2023-03-07T15:31:32.262Z,77.00
2023-03-07T15:32:32.118Z,80.00
2023-03-07T15:33:32.126Z,75.00
2023-03-07T15:34:32.033Z,72.00
2023-03-07T15:35:32.208Z,70.00
2023-03-07T15:36:32.006Z,67.00
2023-03-07T15:37:32.071Z,65.00
2023-03-07T15:38:31.985Z,69.00
2023-03-07T15:39:32.053Z,74.00
2023-03-07T15:40:31.976Z,76.00
2023-03-07T15:41:32.025Z,77.00
2023-03-07T15:42:31.989Z,75.00
2023-03-07T15:43:31.999Z,70.00
2023-03-07T15:44:31.941Z,67.00
2023-03-07T15:45:31.982Z,63.00
2023-03-07T15:46:31.923Z,63.00
2023-03-07T15:47:31.956Z,62.00
2023-03-07T15:48:31.887Z,64.00
2023-03-07T15:49:31.936Z,64.00
2023-03-07T15:50:31.883Z,63.00
2023-03-07T15:51:31.916Z,65.00
2023-03-07T15:52:31.840Z,66.00
2023-03-07T15:53:31.886Z,64.00
2023-03-07T15:54:31.816Z,68.00
2023-03-07T15:55:31.868Z,68.00
2023-03-07T15:56:31.792Z,68.00
2023-03-07T15:57:31.859Z,66.00
2023-03-07T15:58:31.769Z,64.00
2023-03-07T15:59:31.818Z,64.00
2023-03-07T16:00:31.748Z,66.00
2023-03-07T16:01:31.806Z,67.00
2023-03-07T16:02:31.909Z,61.00
2023-03-07T16:03:31.959Z,57.00
2023-03-07T16:04:31.700Z,51.00
2023-03-07T16:05:31.751Z,43.00
2023-03-07T16:06:31.691Z,45.00
2023-03-07T16:07:31.740Z,46.00
2023-03-07T16:08:31.656Z,48.00
2023-03-07T16:09:31.705Z,47.00
2023-03-07T16:10:31.634Z,46.00
2023-03-07T16:11:31.674Z,47.00
2023-03-07T16:12:31.610Z,46.00
2023-03-07T16:13:31.651Z,44.00
2023-03-07T16:14:31.594Z,36.00
2023-03-07T16:15:31.628Z,26.00
2023-03-07T16:16:31.634Z,21.00
2023-03-07T16:17:31.629Z,10.00
2023-03-07T16:18:31.544Z,3.00
2023-03-07T16:19:31.610Z,2.00
2023-03-07T16:20:31.522Z,5.00
2023-03-07T16:21:31.574Z,5.00
2023-03-07T16:22:31.503Z,11.00
2023-03-07T16:23:31.618Z,9.00
2023-03-07T16:24:31.492Z,11.00
2023-03-07T16:25:31.537Z,11.00
2023-03-07T16:26:31.463Z,10.00
2023-03-07T16:27:31.516Z,16.00
2023-03-07T16:28:31.437Z,13.00
2023-03-07T16:29:31.488Z,11.00
2023-03-07T16:30:31.417Z,9.00
2023-03-07T16:31:31.513Z,9.00
2023-03-07T16:32:31.442Z,13.00
2023-03-07T16:33:31.444Z,13.00
2023-03-07T16:34:31.371Z,13.00
2023-03-07T16:35:31.460Z,12.00
2023-03-07T16:36:31.352Z,14.00
2023-03-07T16:37:31.402Z,18.00
2023-03-07T16:38:31.327Z,18.00
2023-03-07T16:39:31.389Z,16.00
2023-03-07T16:40:31.318Z,16.00
2023-03-07T16:41:31.498Z,17.00
2023-03-07T16:42:31.287Z,17.00
2023-03-07T16:43:31.339Z,15.00
2023-03-07T16:44:31.269Z,16.00
2023-03-07T16:45:31.316Z,13.00
2023-03-07T16:46:31.246Z,13.00
2023-03-07T16:47:31.291Z,13.00
2023-03-07T16:48:31.224Z,13.00
2023-03-07T16:49:31.268Z,7.00
2023-03-07T16:50:31.197Z,7.00
2023-03-07T16:51:31.246Z,8.00
2023-03-07T16:52:31.173Z,11.00
2023-03-07T16:53:31.237Z,13.00
2023-03-07T16:54:31.152Z,13.00
2023-03-07T16:55:31.198Z,13.00
2023-03-07T16:56:31.129Z,7.00
2023-03-07T16:57:31.167Z,8.00
2023-03-07T16:58:31.114Z,11.00
2023-03-07T16:59:31.146Z,11.00
2023-03-07T17:00:31.121Z,11.00
2023-03-07T17:01:31.190Z,11.00
2023-03-07T17:02:31.060Z,9.00
2023-03-07T17:03:31.126Z,9.00
2023-03-07T17:04:31.040Z,6.00
2023-03-07T17:05:31.155Z,7.00
2023-03-07T17:06:39.179Z,8.00
2023-03-07T17:07:31.067Z,4.00
2023-03-07T17:08:30.994Z,4.00
2023-03-07T17:09:31.048Z,3.00
2023-03-07T17:10:30.982Z,5.00
2023-03-07T17:11:31.020Z,3.00
2023-03-07T17:12:30.951Z,3.00
2023-03-07T17:13:30.998Z,3.00
2023-03-07T17:14:30.926Z,2.00
2023-03-07T17:15:31.474Z,2.00
2023-03-07T17:16:30.905Z,2.00
2023-03-07T17:17:30.969Z,2.00
2023-03-07T17:18:30.882Z,2.00
2023-03-07T17:19:30.923Z,2.00
2023-03-07T17:20:30.865Z,2.00
2023-03-07T17:21:30.902Z,1.00
2023-03-07T17:22:30.864Z,1.00
2023-03-07T17:23:30.888Z,1.00
2023-03-07T17:24:30.818Z,1.00
2023-03-07T17:25:30.934Z,1.00
